Blue Grass (LEX)

 

Airport Diagram
Current Weather/Forecast (VFR Conditions)
METAR KLEX 091254Z 19018G29KT 10SM SCT110 17/09 A2977 RMK AO2 PK WND 18029/1250 SLP077 T01720094
TAF KLEX 091120Z 0912/1012 15013G20KT P6SM OVC100 WS020/21048KT FM091430 19017G32KT P6SM VCSH OVC090 FM091700 21019G32KT 4SM -RA VCTS OVC050CB FM092000 21022G32KT P6SM VCSH BKN022 OVC040 FM092300 23022G32KT 4SM RA VCTS BKN015 OVC025CB FM100200 33012G20KT P6SM BKN007 OVC012 FM100400 36008KT P6SM OVC007

Airport Information

All Charts
General
Chart Name View
AIRPORT DIAGRAM
TAKEOFF MINIMUMS
ALTERNATE MINIMUMS
HOT SPOT

Arrivals
Chart Name Download
CLEGG FIVE

Approaches
Chart Name Download
ILS OR LOC RWY 04
ILS OR LOC RWY 22
RNAV (GPS) RWY 04
RNAV (GPS) RWY 09
RNAV (GPS) RWY 22
RNAV (GPS) RWY 27
VOR-A


Airport Statistics
Departures Arrivals Local
All Collected Stats since June 2016: 461 427 16
2021 Stats: 109 105 3
May Stats: 2 4 1

Inbound Traffic (Arrivals) - 1
Callsign Aircraft Rules Departure Route
DAL5896 E170/L IFR KDTW BARII2 SINKR CVG CLEGG5

Outbound Traffic (Departures) - 0

No outbound traffic.


Local Traffic (Pattern) - 0

No local traffic.